Lexington, Kentucky
Current Conditions -  °F | °C
As of 11:16 PM on Sunday 23 Nov 2014 (Local Time) from KLEX Reporting Station
Light Rain Light Rain  
Wind Chill: 57°   Ceiling: 1600
Heat Index: 57°   Visibility: 4mi
Dew Point: 55°   Wind: 23mph
Humidity: 93%   Direction: 170°S
Pressure: 29.35"   Gusts: 31mph
Location:  37.99°N, 84.48°W
Report Text: KLEX 240416Z 17020G27KT 4SM -RA BR SCT009 BKN016 OVC022 14/13 A2935 RMK AO2 PK WND 17027/0410 P0001 T01390128
Loading
Personal Weather Stations






























Interactive Weather Map New forecast layout! Learn more

10-Day Weather Forecast

Advertisements
Track Severe Weather on mobile